Time;durP1;ratioP1;P1;durP2;ratioP2;P2;SDS_P1;SDS_P2;PMS_P1;PMS_P2;Temp;Humidity;BMP_temperature;BMP_pressure;BME280_temperature;BME280_humidity;BME280_pressure;Samples;Min_cycle;Max_cycle;Signal;HPM_P1;HPM_P2
2021/04/04 00:01:37;;;;;;;14.23;7.75;;;4.70;96.10;;;;;;6185349;23;20001;-70
2021/04/04 00:04:04;;;;;;;16.42;8.63;;;4.70;96.10;;;;;;6185359;23;20059;-69
2021/04/04 00:06:29;;;;;;;13.88;6.95;;;4.60;96.10;;;;;;6158894;23;20006;-69
2021/04/04 00:08:56;;;;;;;14.52;7.35;;;4.60;96.20;;;;;;6184980;23;20321;-69
2021/04/04 00:11:21;;;;;;;10.30;6.43;;;4.60;96.10;;;;;;6158836;23;20017;-69
2021/04/04 00:13:47;;;;;;;10.68;6.22;;;4.60;96.30;;;;;;6185303;23;20366;-68
2021/04/04 00:16:13;;;;;;;12.65;7.00;;;4.70;96.20;;;;;;6185295;23;20080;-69
2021/04/04 00:18:42;;;;;;;12.20;7.63;;;4.60;96.10;;;;;;6158790;23;20020;-68
2021/04/04 00:21:09;;;;;;;10.77;6.10;;;4.70;95.70;;;;;;6185315;23;20043;-69
2021/04/04 00:23:35;;;;;;;15.90;7.55;;;4.80;95.90;;;;;;6185107;23;20104;-69
2021/04/04 00:26:01;;;;;;;11.80;7.55;;;4.80;95.40;;;;;;6160845;23;20382;-70
2021/04/04 00:28:27;;;;;;;12.45;6.43;;;4.80;95.50;;;;;;6187069;23;20001;-68
2021/04/04 00:30:53;;;;;;;10.05;6.60;;;4.80;95.30;;;;;;6187090;23;20445;-68
2021/04/04 00:33:19;;;;;;;11.45;6.40;;;4.90;95.10;;;;;;6187070;23;20426;-69
2021/04/04 00:35:45;;;;;;;10.73;6.28;;;4.90;95.10;;;;;;6187106;23;20033;-69
2021/04/04 00:38:11;;;;;;;10.90;6.72;;;4.90;94.70;;;;;;6186937;23;20004;-69
2021/04/04 00:40:38;;;;;;;10.90;6.45;;;4.90;95.00;;;;;;6186997;23;20076;-69
2021/04/04 00:43:05;;;;;;;11.82;6.57;;;4.90;95.00;;;;;;6186636;23;20521;-68
2021/04/04 00:45:34;;;;;;;11.00;5.88;;;4.90;95.10;;;;;;6186980;23;20004;-68
2021/04/04 00:48:00;;;;;;;11.75;6.60;;;4.90;95.20;;;;;;6186919;23;20084;-68
2021/04/04 00:50:29;;;;;;;9.57;5.97;;;4.90;95.20;;;;;;6186782;23;20005;-69
2021/04/04 00:52:56;;;;;;;12.38;6.93;;;4.90;95.40;;;;;;6186906;23;20000;-69
2021/04/04 00:55:23;;;;;;;15.57;7.10;;;4.80;95.40;;;;;;6186545;23;20322;-69
2021/04/04 00:57:50;;;;;;;12.73;7.05;;;4.90;95.50;;;;;;6186815;23;20001;-68
2021/04/04 01:00:20;;;;;;;11.48;6.43;;;4.80;95.40;;;;;;6186832;23;20032;-67
2021/04/04 01:02:46;;;;;;;14.18;6.97;;;4.80;95.30;;;;;;6186388;23;20076;-68
2021/04/04 01:05:18;;;;;;;15.98;6.88;;;4.80;95.50;;;;;;6186815;23;20024;-69
2021/04/04 01:07:46;;;;;;;11.98;6.80;;;4.80;95.80;;;;;;6160282;23;20039;-69
2021/04/04 01:10:13;;;;;;;13.52;6.63;;;4.70;95.80;;;;;;6186660;23;20031;-71
2021/04/04 01:13:04;;;;;;;11.00;6.80;;;4.70;95.90;;;;;;6186741;23;19997;-71
2021/04/04 01:15:42;;;;;;;13.75;7.68;;;4.70;96.00;;;;;;6186329;23;20330;-71
2021/04/04 01:18:15;;;;;;;14.18;7.25;;;4.70;96.30;;;;;;6160281;23;20004;-71
2021/04/04 01:20:49;;;;;;;11.18;5.90;;;4.60;96.30;;;;;;6186657;23;20004;-71
2021/04/04 01:23:33;;;;;;;11.13;5.82;;;4.50;96.50;;;;;;6186643;23;20005;-71
2021/04/04 01:26:08;;;;;;;8.82;5.90;;;4.50;96.70;;;;;;6186593;23;20009;-70
2021/04/04 01:28:40;;;;;;;11.20;5.47;;;4.50;96.70;;;;;;6186582;23;20422;-70
2021/04/04 01:31:08;;;;;;;9.48;5.75;;;4.50;96.70;;;;;;6186490;23;20044;-70
2021/04/04 01:33:36;;;;;;;8.63;5.60;;;4.50;96.70;;;;;;6186473;23;20064;-70
2021/04/04 01:36:05;;;;;;;12.48;6.25;;;4.50;96.60;;;;;;6159564;23;20009;-71
2021/04/04 01:38:37;;;;;;;12.82;6.63;;;4.50;96.70;;;;;;6186444;23;20008;-71
2021/04/04 01:41:26;;;;;;;19.13;8.07;;;4.50;96.60;;;;;;6186146;23;20005;-70
2021/04/04 01:43:57;;;;;;;12.88;7.35;;;4.50;96.80;;;;;;6186523;23;19997;-71
2021/04/04 01:46:25;;;;;;;15.60;8.20;;;4.50;96.60;;;;;;6186447;23;20005;-72
2021/04/04 01:48:52;;;;;;;11.20;7.10;;;4.50;96.60;;;;;;6159892;23;19997;-72
2021/04/04 01:51:19;;;;;;;10.48;5.90;;;4.50;96.70;;;;;;6185890;23;20005;-72
2021/04/04 01:53:46;;;;;;;8.75;6.13;;;4.50;96.70;;;;;;6186293;23;20076;-72
2021/04/04 01:56:12;;;;;;;11.13;6.20;;;4.50;96.50;;;;;;6159881;23;20000;-72
2021/04/04 01:58:39;;;;;;;9.02;5.60;;;4.50;96.60;;;;;;6159760;23;20001;-72
2021/04/04 02:01:06;;;;;;;7.53;5.30;;;4.60;96.60;;;;;;6186268;23;20029;-72
2021/04/04 02:03:34;;;;;;;9.68;5.82;;;4.60;96.60;;;;;;6186189;23;19997;-70
2021/04/04 02:06:01;;;;;;;8.98;6.03;;;4.60;96.80;;;;;;6186262;23;20001;-72
2021/04/04 02:08:27;;;;;;;9.88;6.05;;;4.50;96.70;;;;;;6186528;23;20004;-72
2021/04/04 02:10:56;;;;;;;9.50;6.18;;;4.50;96.60;;;;;;6185692;23;20013;-72
2021/04/04 02:13:24;;;;;;;13.77;8.00;;;4.60;96.50;;;;;;6159816;23;20389;-71
2021/04/04 02:15:51;;;;;;;11.07;8.15;;;4.50;96.60;;;;;;6186149;23;19996;-70
2021/04/04 02:18:17;;;;;;;12.05;7.80;;;4.50;96.50;;;;;;6159501;23;20001;-71
2021/04/04 02:20:47;;;;;;;13.18;6.65;;;4.50;96.90;;;;;;6185719;23;20064;-70
2021/04/04 02:23:14;;;;;;;8.88;6.43;;;4.50;96.60;;;;;;6186003;23;20001;-71
2021/04/04 02:25:40;;;;;;;13.77;6.40;;;4.50;96.70;;;;;;6186511;23;20012;-70
2021/04/04 02:28:07;;;;;;;11.02;6.93;;;4.50;96.80;;;;;;6215708;23;20023;-71
2021/04/04 02:30:34;;;;;;;9.35;5.75;;;4.40;97.10;;;;;;6215847;23;20009;-71
2021/04/04 02:33:12;;;;;;;11.10;6.70;;;4.40;97.10;;;;;;6189330;23;20071;-72
2021/04/04 02:35:43;;;;;;;13.05;7.45;;;4.40;97.20;;;;;;6189321;23;20008;-69
2021/04/04 02:38:33;;;;;;;12.27;6.75;;;4.40;97.40;;;;;;6215703;23;20451;-70
2021/04/04 02:41:01;;;;;;;15.98;7.38;;;4.40;97.50;;;;;;6215998;23;20307;-70
2021/04/04 02:43:29;;;;;;;14.43;9.50;;;4.30;97.40;;;;;;6189188;23;20422;-69
2021/04/04 02:45:57;;;;;;;10.90;7.20;;;4.30;97.70;;;;;;6215535;23;20314;-70
2021/04/04 02:48:39;;;;;;;10.88;6.13;;;4.30;97.70;;;;;;6215091;23;20012;-72
2021/04/04 02:51:07;;;;;;;8.70;6.25;;;4.20;98.00;;;;;;6189162;23;20055;-70
2021/04/04 02:53:39;;;;;;;11.80;7.15;;;4.20;98.00;;;;;;6215765;23;20000;-70
2021/04/04 02:56:07;;;;;;;11.10;5.95;;;4.20;97.90;;;;;;6215818;23;20000;-71
2021/04/04 02:58:35;;;;;;;10.27;6.57;;;4.20;98.00;;;;;;6215792;23;20392;-71
2021/04/04 03:01:03;;;;;;;11.63;7.43;;;4.20;98.00;;;;;;6189040;23;20000;-74
2021/04/04 03:03:31;;;;;;;11.43;6.90;;;4.20;98.10;;;;;;6215796;23;19992;-72
2021/04/04 03:05:58;;;;;;;11.50;8.50;;;4.20;98.20;;;;;;6215780;23;20327;-72
2021/04/04 03:08:26;;;;;;;11.63;6.50;;;4.10;98.10;;;;;;6189041;23;20000;-67
2021/04/04 03:10:54;;;;;;;9.80;5.75;;;4.10;98.50;;;;;;6188936;23;20008;-67
2021/04/04 03:13:22;;;;;;;10.75;6.72;;;4.10;98.80;;;;;;6216084;23;20004;-68
2021/04/04 03:15:50;;;;;;;7.85;5.30;;;4.10;98.50;;;;;;6189033;23;20421;-71
2021/04/04 03:18:20;;;;;;;10.55;5.85;;;4.10;98.50;;;;;;6215665;23;20004;-68
2021/04/04 03:20:47;;;;;;;11.18;5.70;;;4.20;98.30;;;;;;6215732;23;20032;-71
2021/04/04 03:23:17;;;;;;;8.35;5.28;;;4.20;98.30;;;;;;6212968;23;20020;-68
2021/04/04 03:25:46;;;;;;;10.80;6.25;;;4.20;98.40;;;;;;6244351;23;20012;-71
2021/04/04 03:28:17;;;;;;;13.27;7.28;;;4.20;98.30;;;;;;6245924;22;19996;-71
2021/04/04 03:30:46;;;;;;;10.53;6.40;;;4.10;98.50;;;;;;6245837;22;20012;-69
2021/04/04 03:33:17;;;;;;;10.90;6.85;;;4.10;98.70;;;;;;6245948;22;20004;-71
2021/04/04 03:35:48;;;;;;;8.30;5.88;;;4.10;98.70;;;;;;6245940;22;20028;-68
2021/04/04 03:38:16;;;;;;;9.23;5.38;;;4.10;98.90;;;;;;6245983;22;20026;-71
2021/04/04 03:40:42;;;;;;;9.00;5.93;;;4.10;99.00;;;;;;6246233;22;20028;-71
2021/04/04 03:43:15;;;;;;;13.53;5.93;;;4.10;99.20;;;;;;6245877;22;20001;-70
2021/04/04 03:45:42;;;;;;;9.93;6.97;;;4.10;99.30;;;;;;6245993;22;20071;-69
2021/04/04 03:48:08;;;;;;;9.52;6.63;;;4.00;99.40;;;;;;6245881;22;20000;-69
2021/04/04 03:50:38;;;;;;;8.93;5.83;;;4.00;99.40;;;;;;6244097;23;20012;-71
2021/04/04 03:53:05;;;;;;;10.30;6.20;;;4.00;99.40;;;;;;6245864;22;20000;-71
2021/04/04 03:55:33;;;;;;;11.83;8.10;;;4.00;99.30;;;;;;6245457;22;19996;-71
2021/04/04 03:58:01;;;;;;;8.70;6.43;;;4.00;99.50;;;;;;6245810;22;20083;-72
2021/04/04 04:00:31;;;;;;;11.30;6.67;;;3.90;99.60;;;;;;6247404;22;19996;-71
2021/04/04 04:02:58;;;;;;;9.90;7.05;;;4.00;99.70;;;;;;6247806;22;20026;-71
2021/04/04 04:05:24;;;;;;;10.07;6.60;;;4.00;99.60;;;;;;6247831;22;20004;-71
2021/04/04 04:07:55;;;;;;;9.30;6.57;;;4.00;99.70;;;;;;6247822;22;20023;-71
2021/04/04 04:10:22;;;;;;;11.75;6.68;;;3.90;99.80;;;;;;6247717;22;20058;-71
2021/04/04 04:12:50;;;;;;;8.97;6.03;;;4.00;99.50;;;;;;6247718;22;20003;-71
2021/04/04 04:15:17;;;;;;;10.93;6.70;;;4.10;99.40;;;;;;6245446;23;20007;-71
2021/04/04 04:17:46;;;;;;;13.07;6.73;;;4.10;99.40;;;;;;6247696;22;20054;-70
2021/04/04 04:20:49;;;;;;;10.88;6.18;;;4.20;99.30;;;;;;6247637;22;20079;-71
2021/04/04 04:23:15;;;;;;;8.37;5.53;;;4.20;99.30;;;;;;6247359;23;20008;-71
2021/04/04 04:25:42;;;;;;;8.65;5.72;;;4.20;99.00;;;;;;6245790;23;20008;-72
2021/04/04 04:28:10;;;;;;;9.52;6.90;;;4.30;99.00;;;;;;6246043;23;20000;-72
2021/04/04 04:30:37;;;;;;;11.93;7.32;;;4.40;99.10;;;;;;6245815;23;20043;-72
2021/04/04 04:36:28;;;;;;;11.90;6.30;;;4.40;99.10;;;;;;6245027;23;20054;-72
2021/04/04 04:38:58;;;;;;;9.95;6.43;;;4.40;99.10;;;;;;6245530;23;20000;-71
2021/04/04 04:41:25;;;;;;;9.77;5.85;;;4.40;98.90;;;;;;6245806;23;20321;-74
2021/04/04 04:43:57;;;;;;;10.18;6.40;;;4.40;99.10;;;;;;6245840;23;20313;-71
2021/04/04 04:46:37;;;;;;;14.85;6.88;;;4.40;99.20;;;;;;6247537;22;20004;-71
2021/04/04 04:49:05;;;;;;;9.85;6.15;;;4.50;99.10;;;;;;6246851;22;20010;-72
2021/04/04 04:51:31;;;;;;;13.43;7.63;;;4.50;98.70;;;;;;6245617;23;20012;-71
2021/04/04 04:53:57;;;;;;;11.52;7.32;;;4.50;99.00;;;;;;6247217;22;20075;-71
2021/04/04 04:56:25;;;;;;;12.18;6.88;;;4.60;99.10;;;;;;6247400;22;20046;-71
2021/04/04 04:58:51;;;;;;;12.02;7.28;;;4.50;99.10;;;;;;6245339;23;20032;-71
2021/04/04 05:01:20;;;;;;;11.20;6.82;;;4.60;99.30;;;;;;6245658;23;20008;-71
2021/04/04 05:03:48;;;;;;;11.52;7.25;;;4.60;99.20;;;;;;6245677;23;20004;-71
2021/04/04 05:06:15;;;;;;;13.45;7.75;;;4.70;98.90;;;;;;6245639;23;20004;-71
2021/04/04 05:08:45;;;;;;;14.32;8.85;;;4.70;98.70;;;;;;6247194;22;19996;-70
2021/04/04 05:11:13;;;;;;;15.05;10.07;;;4.70;99.10;;;;;;6244951;23;20008;-70
2021/04/04 05:13:40;;;;;;;25.00;12.93;;;4.80;98.70;;;;;;6245097;23;20083;-70
2021/04/04 05:16:11;;;;;;;26.85;12.50;;;4.80;98.60;;;;;;6245014;23;20007;-70
2021/04/04 05:18:37;;;;;;;17.48;11.73;;;4.90;98.60;;;;;;6247120;23;20007;-70
2021/04/04 05:21:04;;;;;;;20.95;10.88;;;5.00;98.70;;;;;;6245376;23;20324;-70
2021/04/04 05:23:31;;;;;;;16.92;9.50;;;5.20;98.20;;;;;;6245042;23;20498;-70
2021/04/04 05:25:57;;;;;;;11.57;8.07;;;5.40;97.90;;;;;;6247035;22;20000;-71
2021/04/04 05:28:25;;;;;;;12.60;8.13;;;5.40;97.20;;;;;;6247079;22;20015;-71
2021/04/04 05:30:50;;;;;;;13.90;7.95;;;5.50;97.20;;;;;;6245211;23;20008;-71
2021/04/04 05:33:16;;;;;;;11.63;8.27;;;5.60;96.90;;;;;;6247037;22;20429;-71
2021/04/04 05:35:43;;;;;;;12.45;7.97;;;5.60;96.50;;;;;;6246651;22;20019;-71
2021/04/04 05:38:10;;;;;;;11.00;7.82;;;5.60;96.10;;;;;;6247014;22;20478;-71
2021/04/04 05:40:37;;;;;;;13.00;8.25;;;5.70;96.30;;;;;;6246907;22;20436;-71
2021/04/04 05:43:11;;;;;;;13.23;8.30;;;5.60;96.80;;;;;;6246836;22;20000;-69
2021/04/04 05:45:45;;;;;;;15.48;8.50;;;5.60;96.40;;;;;;6246810;22;19996;-69
2021/04/04 05:48:52;;;;;;;13.35;8.15;;;5.70;96.70;;;;;;6247015;22;19996;-69
2021/04/04 05:52:00;;;;;;;16.80;8.85;;;5.70;96.60;;;;;;6242164;22;20009;-72
2021/04/04 05:54:58;;;;;;;18.50;10.05;;;5.70;96.60;;;;;;6246836;22;19996;-71
2021/04/04 05:57:52;;;;;;;46.10;23.08;;;5.70;96.00;;;;;;6246694;23;20032;-72
2021/04/04 06:00:19;;;;;;;163.50;73.57;;;5.90;96.20;;;;;;6246750;23;20026;-72
2021/04/04 06:03:05;;;;;;;38.40;20.23;;;6.00;95.50;;;;;;6245037;23;20070;-73
2021/04/04 06:06:03;;;;;;;21.50;11.13;;;6.10;95.40;;;;;;6223674;23;20336;-73
2021/04/04 06:09:06;;;;;;;14.88;8.60;;;6.30;95.30;;;;;;6233824;23;20028;-72
2021/04/04 06:11:46;;;;;;;14.65;9.25;;;6.20;95.80;;;;;;6246513;23;20015;-73
2021/04/04 06:14:40;;;;;;;40.50;24.70;;;6.20;95.90;;;;;;6246505;22;19996;-74
2021/04/04 06:17:26;;;;;;;14.65;8.93;;;6.10;95.80;;;;;;6244807;23;20000;-73
2021/04/04 06:20:11;;;;;;;37.30;24.55;;;6.10;96.10;;;;;;6244195;22;20001;-73
2021/04/04 06:23:00;;;;;;;23.30;11.65;;;6.10;95.20;;;;;;6243474;23;20076;-72
2021/04/04 06:26:01;;;;;;;19.67;10.52;;;6.00;96.30;;;;;;6245994;23;20008;-73
2021/04/04 06:28:54;;;;;;;26.15;12.35;;;5.90;96.10;;;;;;6246275;23;19993;-73
2021/04/04 06:31:53;;;;;;;15.95;10.88;;;5.80;96.30;;;;;;6244404;23;20008;-74
2021/04/04 06:34:31;;;;;;;15.80;8.60;;;5.80;96.10;;;;;;6246071;23;20007;-72
2021/04/04 06:37:25;;;;;;;15.63;9.32;;;7.10;99.90;;;;;;6244576;23;20015;-74
2021/04/04 06:40:09;;;;;;;18.33;10.70;;;6.60;97.60;;;;;;6246256;22;20075;-73
2021/04/04 06:42:56;;;;;;;17.08;10.60;;;6.40;98.30;;;;;;6246211;23;20004;-72
2021/04/04 06:45:43;;;;;;;18.27;11.68;;;6.20;99.40;;;;;;6244537;23;20062;-74
2021/04/04 06:48:47;;;;;;;16.35;10.90;;;6.20;98.90;;;;;;6244181;23;20006;-73
2021/04/04 06:52:03;;;;;;;14.95;9.43;;;6.20;99.10;;;;;;6152379;23;20016;-72
2021/04/04 06:54:47;;;;;;;17.42;10.40;;;6.20;99.10;;;;;;6103890;23;20450;-73
2021/04/04 06:57:50;;;;;;;27.13;14.10;;;6.20;99.10;;;;;;6236075;23;20012;-72
2021/04/04 07:00:25;;;;;;;27.98;15.20;;;6.20;98.80;;;;;;6244509;23;20724;-74
2021/04/04 07:03:03;;;;;;;21.52;12.70;;;6.30;99.10;;;;;;6242176;23;20074;-73
2021/04/04 07:05:31;;;;;;;14.82;9.30;;;6.30;98.70;;;;;;6243869;23;20043;-74
2021/04/04 07:08:14;;;;;;;16.50;9.93;;;6.30;98.90;;;;;;6244477;23;20091;-75
2021/04/04 07:10:51;;;;;;;22.38;12.80;;;6.50;99.20;;;;;;6244291;23;20012;-76
2021/04/04 07:13:28;;;;;;;15.15;8.88;;;6.60;98.70;;;;;;6246206;23;20000;-76
2021/04/04 07:16:26;;;;;;;16.83;9.05;;;6.70;97.80;;;;;;6246135;22;20087;-76
2021/04/04 07:19:40;;;;;;;15.63;9.13;;;6.80;97.30;;;;;;6244579;23;20075;-76
2021/04/04 07:22:39;;;;;;;21.23;12.00;;;6.90;98.70;;;;;;6225909;22;20079;-73
2021/04/04 07:25:27;;;;;;;13.82;9.10;;;6.90;96.60;;;;;;6246029;23;20023;-75
2021/04/04 07:27:59;;;;;;;20.35;13.43;;;6.70;97.20;;;;;;6243996;23;20004;-74
2021/04/04 07:30:31;;;;;;;19.20;10.93;;;6.70;97.60;;;;;;6244654;23;20428;-73
2021/04/04 07:33:15;;;;;;;;;;;6.80;98.00;;;;;;6243320;23;20032;-75
2021/04/04 07:35:53;;;;;;;16.45;9.90;;;6.80;98.00;;;;;;6243831;23;19910;-71
2021/04/04 07:38:53;;;;;;;15.38;10.52;;;6.90;98.10;;;;;;6244043;23;20010;-75
2021/04/04 07:41:30;;;;;;;21.10;11.00;;;7.10;98.60;;;;;;6244946;23;20071;-73
2021/04/04 07:44:45;;;;;;;14.38;9.57;;;7.30;97.70;;;;;;6245691;23;20059;-73
2021/04/04 07:47:17;;;;;;;14.65;8.75;;;7.30;97.00;;;;;;6217555;23;20005;-74
2021/04/04 07:49:51;;;;;;;17.92;10.18;;;7.40;96.50;;;;;;6243949;23;20356;-72
2021/04/04 07:52:31;;;;;;;17.50;10.80;;;7.50;96.10;;;;;;6245447;23;20066;-73
2021/04/04 07:55:06;;;;;;;17.17;10.98;;;7.70;95.20;;;;;;6243684;23;20082;-73
2021/04/04 07:57:59;;;;;;;12.95;9.02;;;7.80;94.90;;;;;;6243769;23;19996;-72
2021/04/04 08:00:26;;;;;;;17.40;10.07;;;7.80;94.20;;;;;;6244030;23;20425;-72
2021/04/04 08:03:03;;;;;;;59.13;29.25;;;7.90;95.10;;;;;;6245461;23;19996;-74
2021/04/04 08:05:33;;;;;;;221.60;85.30;;;8.00;94.60;;;;;;6245765;23;19996;-73
2021/04/04 08:08:08;;;;;;;173.75;86.28;;;8.10;94.30;;;;;;6243943;23;20027;-74
2021/04/04 08:10:57;;;;;;;70.47;40.03;;;8.30;94.40;;;;;;6243610;23;20012;-72
2021/04/04 08:14:22;;;;;;;42.50;27.65;;;8.30;92.70;;;;;;6245719;23;20083;-72
2021/04/04 08:16:58;;;;;;;14.07;8.63;;;8.30;93.50;;;;;;6152355;23;20055;-71
2021/04/04 08:19:25;;;;;;;15.95;9.43;;;8.20;92.60;;;;;;6152395;23;20593;-73
2021/04/04 08:22:00;;;;;;;11.75;9.27;;;8.30;93.90;;;;;;6152431;23;20010;-71
2021/04/04 08:25:12;;;;;;;11.77;7.97;;;8.10;93.40;;;;;;6152235;23;20092;-72
2021/04/04 08:28:05;;;;;;;14.65;9.07;;;8.10;93.80;;;;;;6035958;23;20029;-72
2021/04/04 08:30:39;;;;;;;9.40;7.15;;;7.90;94.10;;;;;;6005713;23;20017;-73
2021/04/04 08:33:20;;;;;;;63.15;34.15;;;8.10;93.80;;;;;;6036031;23;20015;-74
2021/04/04 08:35:50;;;;;;;62.97;35.77;;;8.10;93.60;;;;;;6008483;23;20394;-74
2021/04/04 08:38:30;;;;;;;47.75;27.98;;;8.10;93.30;;;;;;6035653;23;20528;-74
2021/04/04 08:40:58;;;;;;;25.52;18.08;;;8.30;93.00;;;;;;6012240;23;20010;-71
2021/04/04 08:43:26;;;;;;;26.95;16.70;;;8.40;92.30;;;;;;6035799;23;20011;-72
2021/04/04 08:46:13;;;;;;;22.05;15.40;;;8.60;93.20;;;;;;6035964;23;20011;-71
2021/04/04 08:48:39;;;;;;;16.40;9.25;;;8.70;92.50;;;;;;6148231;23;19998;-73
2021/04/04 08:51:10;;;;;;;27.23;19.60;;;8.80;91.30;;;;;;6153269;23;20514;-74
2021/04/04 08:53:41;;;;;;;21.40;15.93;;;8.80;91.50;;;;;;6153578;23;20005;-73
2021/04/04 08:56:08;;;;;;;12.77;8.15;;;8.90;95.80;;;;;;6153810;23;20434;-73
2021/04/04 08:58:39;;;;;;;21.83;13.52;;;8.90;90.90;;;;;;6153855;23;20060;-72
2021/04/04 09:01:10;;;;;;;9.32;7.57;;;8.80;91.30;;;;;;6154043;23;20333;-72
2021/04/04 09:03:47;;;;;;;10.15;7.80;;;8.80;90.50;;;;;;6169124;23;20085;-73
2021/04/04 09:06:13;;;;;;;16.65;10.82;;;8.70;90.40;;;;;;6245386;23;20004;-72
2021/04/04 09:08:42;;;;;;;16.23;10.25;;;8.60;91.90;;;;;;6247057;23;19996;-73
2021/04/04 09:11:12;;;;;;;14.00;8.10;;;8.70;95.60;;;;;;6246765;23;20007;-72
2021/04/04 09:13:38;;;;;;;19.63;10.43;;;8.50;98.20;;;;;;6246675;22;20321;-73
2021/04/04 09:16:10;;;;;;;16.35;11.75;;;8.70;97.90;;;;;;6246709;23;20050;-74
2021/04/04 09:18:48;;;;;;;17.63;12.65;;;8.80;91.80;;;;;;6238985;23;20004;-73
2021/04/04 09:21:14;;;;;;;12.82;9.93;;;9.10;91.50;;;;;;6243991;23;20004;-74
2021/04/04 09:23:43;;;;;;;18.35;13.25;;;;;;;;;;6244507;23;20026;-73
2021/04/04 09:26:15;;;;;;;14.77;9.25;;;9.60;87.50;;;;;;6245178;23;20016;-72
2021/04/04 09:28:41;;;;;;;18.23;13.93;;;9.60;87.20;;;;;;6245217;23;20032;-73
2021/04/04 09:31:31;;;;;;;23.52;17.88;;;9.90;86.00;;;;;;6244544;23;20016;-73
2021/04/04 09:34:18;;;;;;;42.55;29.00;;;10.00;86.30;;;;;;6246669;23;20004;-70
2021/04/04 09:36:47;;;;;;;11.07;7.25;;;10.30;83.80;;;;;;6246671;23;20079;-72
2021/04/04 09:39:26;;;;;;;13.82;9.45;;;10.30;81.40;;;;;;6244757;23;20004;-72
2021/04/04 09:41:54;;;;;;;14.65;9.85;;;10.40;80.90;;;;;;6244646;23;20100;-72
2021/04/04 09:44:32;;;;;;;22.55;15.38;;;10.40;81.10;;;;;;6245092;23;20429;-73
2021/04/04 09:46:59;;;;;;;72.00;35.08;;;10.40;80.90;;;;;;6246798;23;20000;-73
2021/04/04 09:49:36;;;;;;;36.13;23.00;;;10.40;80.30;;;;;;6246316;23;19997;-73
2021/04/04 09:52:29;;;;;;;13.00;9.63;;;10.50;80.90;;;;;;6245993;23;20057;-73
2021/04/04 09:55:05;;;;;;;12.40;8.68;;;10.50;80.30;;;;;;6246467;22;20000;-73
2021/04/04 09:57:43;;;;;;;10.07;8.52;;;10.50;80.20;;;;;;6244355;23;20004;-72
2021/04/04 10:00:29;;;;;;;15.07;8.35;;;10.60;79.60;;;;;;6246063;22;20444;-72
2021/04/04 10:02:57;;;;;;;8.70;7.32;;;10.80;78.00;;;;;;6246435;22;20004;-71
2021/04/04 10:05:32;;;;;;;10.43;8.55;;;10.50;75.70;;;;;;6246365;22;20075;-73
2021/04/04 10:08:12;;;;;;;12.05;8.27;;;10.60;77.00;;;;;;6246086;22;20321;-73
2021/04/04 10:10:39;;;;;;;12.23;8.68;;;;;;;;;;6246419;22;20081;-72
2021/04/04 10:13:05;;;;;;;10.77;7.97;;;11.10;77.70;;;;;;6244468;23;20425;-74
2021/04/04 10:15:51;;;;;;;46.72;30.20;;;11.20;76.70;;;;;;6244263;23;20091;-72
2021/04/04 10:18:20;;;;;;;15.77;11.88;;;11.20;73.30;;;;;;6246273;23;20027;-73
2021/04/04 10:20:52;;;;;;;13.90;9.38;;;11.80;73.30;;;;;;6244671;23;20083;-72
2021/04/04 10:23:20;;;;;;;21.95;13.48;;;12.30;68.80;;;;;;6244308;23;20012;-75
2021/04/04 10:26:05;;;;;;;28.88;19.02;;;12.40;67.60;;;;;;6246331;23;20409;-73
2021/04/04 10:28:54;;;;;;;10.30;8.18;;;12.90;66.60;;;;;;6244693;23;20039;-71
2021/04/04 10:31:23;;;;;;;11.65;8.88;;;13.10;65.10;;;;;;6245511;22;20367;-73
2021/04/04 10:34:00;;;;;;;10.73;8.40;;;12.60;66.00;;;;;;6244525;23;19996;-72
2021/04/04 10:36:27;;;;;;;10.77;8.68;;;14.10;65.80;;;;;;6245792;22;19992;-73
2021/04/04 10:42:12;;;;;;;16.50;11.77;;;;;;;;;;6235690;22;20349;-73
2021/04/04 10:44:37;;;;;;;9.13;6.97;;;14.80;53.20;;;;;;6245682;23;19997;-73
2021/04/04 10:47:23;;;;;;;16.33;14.45;;;14.30;55.40;;;;;;6245887;22;20014;-73
2021/04/04 10:49:49;;;;;;;10.38;7.28;;;14.20;58.10;;;;;;6244163;23;20015;-72
2021/04/04 10:52:19;;;;;;;11.45;7.18;;;13.60;58.90;;;;;;6245067;22;20008;-73
2021/04/04 10:54:47;;;;;;;8.43;6.95;;;12.50;64.70;;;;;;6245310;22;20321;-73
2021/04/04 10:57:14;;;;;;;8.57;6.88;;;11.40;67.00;;;;;;6245930;23;20035;-72
2021/04/04 10:59:40;;;;;;;11.35;8.10;;;10.80;70.30;;;;;;6243195;23;20040;-74
2021/04/04 11:02:06;;;;;;;17.38;11.68;;;10.30;72.50;;;;;;6244108;23;20000;-74
2021/04/04 11:04:33;;;;;;;14.65;9.60;;;10.20;79.80;;;;;;6245437;23;20090;-74
2021/04/04 11:06:59;;;;;;;23.50;13.20;;;10.30;79.70;;;;;;6243772;23;20321;-73
2021/04/04 11:09:25;;;;;;;15.80;9.52;;;10.50;80.30;;;;;;6243751;23;20001;-75
2021/04/04 11:11:55;;;;;;;12.98;8.80;;;10.90;77.00;;;;;;6245978;23;20008;-71
2021/04/04 11:14:24;;;;;;;7.60;6.60;;;11.20;73.00;;;;;;6244035;23;20020;-72
2021/04/04 11:16:56;;;;;;;7.25;6.55;;;11.50;70.70;;;;;;6245819;22;20026;-72
2021/04/04 11:19:24;;;;;;;12.93;8.65;;;11.70;70.30;;;;;;6243595;23;20448;-74
2021/04/04 11:21:51;;;;;;;21.00;13.68;;;11.40;68.50;;;;;;6244027;23;20011;-73
2021/04/04 11:24:23;;;;;;;17.88;13.25;;;11.60;68.80;;;;;;6243373;23;20119;-72
2021/04/04 11:26:58;;;;;;;;;;;11.80;70.60;;;;;;6244471;23;20004;-73
2021/04/04 11:29:26;;;;;;;11.88;8.95;;;12.30;69.10;;;;;;6243862;23;19903;-74
2021/04/04 11:31:58;;;;;;;13.15;8.95;;;12.10;67.00;;;;;;6245181;22;20012;-73
2021/04/04 11:34:32;;;;;;;12.80;9.07;;;14.50;60.90;;;;;;6245372;22;20011;-73
2021/04/04 11:37:11;;;;;;;9.88;7.47;;;16.50;55.00;;;;;;6244058;23;20015;-72
2021/04/04 11:39:38;;;;;;;7.68;6.43;;;15.50;51.00;;;;;;6245524;22;20436;-72
2021/04/04 11:42:05;;;;;;;8.82;6.90;;;16.60;51.10;;;;;;6246025;22;20008;-72
2021/04/04 11:44:35;;;;;;;10.10;6.32;;;16.60;52.20;;;;;;6243928;23;20032;-74
2021/04/04 11:47:25;;;;;;;7.95;6.05;;;17.90;47.50;;;;;;6245730;22;20023;-72
2021/04/04 11:49:53;;;;;;;20.75;10.45;;;16.10;48.60;;;;;;6244378;22;20445;-70
2021/04/04 11:52:22;;;;;;;13.52;8.68;;;14.40;57.50;;;;;;6245276;23;20008;-72
2021/04/04 11:54:51;;;;;;;13.15;8.65;;;12.30;59.60;;;;;;6245622;22;20003;-73
2021/04/04 11:57:30;;;;;;;11.80;8.98;;;12.00;61.60;;;;;;6244003;23;20392;-73
2021/04/04 12:00:11;;;;;;;14.45;11.05;;;11.60;62.20;;;;;;6245064;22;19996;-73
2021/04/04 12:02:45;;;;;;;11.98;8.80;;;11.70;64.80;;;;;;6244019;23;20421;-73
2021/04/04 12:05:15;;;;;;;10.10;6.93;;;11.80;64.50;;;;;;6244061;23;20032;-72
2021/04/04 12:07:58;;;;;;;14.18;8.15;;;11.20;67.20;;;;;;6243873;23;20058;-69
2021/04/04 12:10:30;;;;;;;18.95;7.82;;;10.80;67.50;;;;;;6243353;23;20030;-73
2021/04/04 12:12:56;;;;;;;9.73;7.38;;;10.50;73.00;;;;;;6243577;23;20005;-73
2021/04/04 12:15:24;;;;;;;12.82;7.88;;;9.70;72.10;;;;;;6242164;23;20329;-73
2021/04/04 12:17:58;;;;;;;11.75;9.75;;;9.40;77.70;;;;;;6242710;23;20370;-73
2021/04/04 12:20:29;;;;;;;16.23;12.95;;;9.10;78.60;;;;;;6239914;23;20000;-71
2021/04/04 12:22:55;;;;;;;9.75;7.28;;;8.70;81.50;;;;;;6244783;23;20417;-73
2021/04/04 12:25:24;;;;;;;8.75;6.72;;;8.60;82.80;;;;;;6246861;22;19996;-74
2021/04/04 12:27:56;;;;;;;8.60;6.10;;;8.70;84.60;;;;;;6245697;23;20067;-73
2021/04/04 12:30:30;;;;;;;8.98;7.03;;;8.60;85.70;;;;;;6245617;23;20031;-70
2021/04/04 12:33:06;;;;;;;14.43;9.40;;;8.60;84.70;;;;;;6245731;23;20026;-71
2021/04/04 12:35:33;;;;;;;28.33;16.42;;;8.70;90.10;;;;;;6247385;22;20054;-69
2021/04/04 12:38:00;;;;;;;18.80;9.85;;;8.70;88.90;;;;;;6247096;22;20040;-71
2021/04/04 12:40:26;;;;;;;18.95;11.50;;;8.60;82.10;;;;;;6247306;22;20050;-71
2021/04/04 12:43:01;;;;;;;24.25;12.10;;;8.50;86.30;;;;;;6245651;23;20042;-71
2021/04/04 12:45:38;;;;;;;20.95;11.40;;;8.70;85.40;;;;;;6245843;23;20000;-71
2021/04/04 12:48:19;;;;;;;15.00;9.95;;;8.90;88.80;;;;;;6246677;23;20785;-71
2021/04/04 12:50:56;;;;;;;20.98;11.63;;;9.30;81.70;;;;;;6247023;22;20015;-71
2021/04/04 12:53:22;;;;;;;23.05;13.95;;;;;;;;;;6247370;23;20027;-71
2021/04/04 12:55:48;;;;;;;15.35;9.32;;;10.30;99.90;;;;;;6247267;23;20439;-71
2021/04/04 12:58:14;;;;;;;11.25;8.38;;;;;;;;;;6247306;22;20028;-72
2021/04/04 13:00:42;;;;;;;14.43;8.80;;;11.30;72.50;;;;;;6245669;23;20066;-72
2021/04/04 13:03:12;;;;;;;20.17;13.77;;;12.30;70.40;;;;;;6247263;22;20001;-70
2021/04/04 13:05:51;;;;;;;12.45;9.65;;;14.00;65.50;;;;;;6247238;23;20031;-71
2021/04/04 13:08:26;;;;;;;12.15;8.32;;;16.90;56.70;;;;;;6245593;23;20004;-74
2021/04/04 13:11:13;;;;;;;9.23;7.50;;;18.10;48.50;;;;;;6246797;22;20008;-73
2021/04/04 13:13:45;;;;;;;11.95;7.97;;;18.30;49.00;;;;;;6247242;22;19996;-73
2021/04/04 13:16:16;;;;;;;7.43;6.10;;;19.90;45.50;;;;;;6247218;22;20026;-71
2021/04/04 13:18:46;;;;;;;12.13;9.25;;;19.10;44.80;;;;;;6245536;23;20000;-72
2021/04/04 13:21:21;;;;;;;11.60;7.95;;;14.80;51.10;;;;;;6245528;23;20054;-71
2021/04/04 13:23:52;;;;;;;11.15;7.78;;;14.00;52.00;;;;;;6246804;23;20046;-72
2021/04/04 13:26:22;;;;;;;14.85;8.98;;;12.60;57.80;;;;;;6245427;23;20012;-71